Elk Grove Village, IL

9:36 AM CDT en Agosto 20, 2014 (GMT -0500)
Chicago-Midway | Change Station
CLOSE
Current Station
Aeropuerto
Location: Chicago Midway,
Altura: 623 ft
Estaciones meteorológicas cercanas

Alt 623 ft 41.78 °N, 87.76 °W | Updated 45 minutes ago

Partly Cloudy
Parcialmente nublado
75 ° F
Sensación térmica 75 ° F
N
0
Viento Variable Viento desde Norte

Hoy
Alta -- | Baja -- ° F
--% Posibilidad de precipitaciones
Ayer
Alta -- | Baja -- ° F
Precip. -- pul
6:05 AM 7:44 PM
Creciente menguante, 21% visible
Presión 29.83 pul
Visibilidad 10.0 Millas
Nubes Baja 25000 ft
Punto de rocío 66 ° F
Humedad 73%
Precipitaciones 0.00 pul
Espesor de la nieve No disponible.
UV 3 de una escala de 12
Polen 9.90 de una escala de 12
Ozono Buena
PM2.5 Moderada
Flu Activity No disponible.
METAR KMDW 201351Z 00000KT 10SM FEW250 24/19 A2987 RMK AO2 SLP102 T02390189

More Conditions Fewer Conditions

Presión 29.83 pul
Visibilidad 10.0 Millas
Nubes Baja 25000 ft
Punto de rocío 66 ° F
Humedad 73%
Precipitaciones 0.00 pul
Espesor de la nieve No disponible.
UV 3 de una escala de 12
Polen 9.90 de una escala de 12
Ozono Buena
PM2.5 Moderada
Flu Activity No disponible.
METAR KMDW 201351Z 00000KT 10SM FEW250 24/19 A2987 RMK AO2 SLP102 T02390189

More Conditions Fewer Conditions

10-Day Weather Forecast

Almanac

Astronomía

Aug. 20, 2014 Salida Puesta
Hora real 6:05 AM CDT 7:44 PM CDT
Crepúsculo civil 5:35 AM CDT 8:14 PM CDT
Crepúsculo náutico 4:59 AM CDT 8:50 PM CDT
Crepúsculo astronómico 4:21 AM CDT 9:28 PM CDT
Luna 1:43 AM CDT 4:31 PM CDT
Horas de luz 14h 38m
Horas de luz
13h 39m
Tomorrow will be 2m 35s shorter.
Creciente menguante, 21% of the Moon is Illuminated
Hoy
Creciente menguante
Ago 25
Nueva
Sep 2
Cuarto creciente
Sep 8
Luna llena
Sep 15
Cuarto menguante

Extremos de hoy

Máximos del estado Bajos del estado

Community

WunderPhotos

Upload Photos

1,745,654 ¡fotos cargadas!

Nearby

Calidad del aire

  Calidad del aire Índice AQ Contaminante
Ayer Moderada
PM2.5
Ayer Buena
OZONE
Real Moderada
PM2.5
Real Buena
OZONE
Miércoles Moderada
OZONE
Miércoles Moderada
PM2.5
Jueves Moderada
OZONE
Jueves Moderada
PM2.5

Grosos de nieve

Estación Profundido Altura
No tenemos constancia de nieve nueva.

Actividad de terremotos

Ciudad Distance Mag. Tiempo y dato
No hay informes recientes de la actividad sísmica.
Magnitud mínima muestra es 2,5.

Temperaturas de aguas costeras

Lugar Temperatura
Sin partes meteorológicos de las estaciones

Estaciones meteorológicas cercanas